sensor_id;sensor_type;location;lat;lon;timestamp;pressure;altitude;pressure_sealevel;temperature;humidity
11856;BME280;5987;53.140;8.904;2023-04-02T00:00:19;101485.09;;;0.73;100.00
11856;BME280;5987;53.140;8.904;2023-04-02T00:03:23;101488.50;;;0.68;100.00
11856;BME280;5987;53.140;8.904;2023-04-02T00:06:36;101496.22;;;0.67;100.00
11856;BME280;5987;53.140;8.904;2023-04-02T00:09:46;101511.69;;;0.64;100.00
11856;BME280;5987;53.140;8.904;2023-04-02T00:13:00;101515.13;;;0.63;100.00
11856;BME280;5987;53.140;8.904;2023-04-02T00:16:07;101517.69;;;0.63;100.00
11856;BME280;5987;53.140;8.904;2023-04-02T00:19:23;101518.50;;;0.59;100.00
11856;BME280;5987;53.140;8.904;2023-04-02T00:22:30;101531.41;;;0.57;100.00
11856;BME280;5987;53.140;8.904;2023-04-02T00:25:39;101535.72;;;0.57;100.00
11856;BME280;5987;53.140;8.904;2023-04-02T00:28:44;101548.53;;;0.52;100.00
11856;BME280;5987;53.140;8.904;2023-04-02T00:31:50;101538.13;;;0.47;100.00
11856;BME280;5987;53.140;8.904;2023-04-02T00:34:55;101552.84;;;0.51;100.00
11856;BME280;5987;53.140;8.904;2023-04-02T00:38:01;101547.63;;;0.48;100.00
11856;BME280;5987;53.140;8.904;2023-04-02T00:41:06;101558.00;;;0.50;100.00
11856;BME280;5987;53.140;8.904;2023-04-02T00:44:11;101566.59;;;0.50;100.00
11856;BME280;5987;53.140;8.904;2023-04-02T00:47:20;101568.25;;;0.45;100.00
11856;BME280;5987;53.140;8.904;2023-04-02T00:50:31;101576.88;;;0.47;100.00
11856;BME280;5987;53.140;8.904;2023-04-02T00:53:41;101573.25;;;0.36;100.00
11856;BME280;5987;53.140;8.904;2023-04-02T00:56:51;101593.09;;;0.37;100.00
11856;BME280;5987;53.140;8.904;2023-04-02T00:59:59;101589.59;;;0.35;100.00
11856;BME280;5987;53.140;8.904;2023-04-02T01:03:30;101593.81;;;0.30;100.00
11856;BME280;5987;53.140;8.904;2023-04-02T01:06:38;101602.41;;;0.29;100.00
11856;BME280;5987;53.140;8.904;2023-04-02T01:10:17;101597.25;;;0.29;100.00
11856;BME280;5987;53.140;8.904;2023-04-02T01:13:30;101598.03;;;0.26;100.00
11856;BME280;5987;53.140;8.904;2023-04-02T01:16:49;101600.59;;;0.25;100.00
11856;BME280;5987;53.140;8.904;2023-04-02T01:20:37;101603.97;;;0.21;100.00
11856;BME280;5987;53.140;8.904;2023-04-02T01:23:58;101612.47;;;0.15;100.00
11856;BME280;5987;53.140;8.904;2023-04-02T01:27:07;101614.19;;;0.14;100.00
11856;BME280;5987;53.140;8.904;2023-04-02T01:30:19;101623.59;;;0.11;100.00
11856;BME280;5987;53.140;8.904;2023-04-02T01:33:31;101623.59;;;0.11;100.00
11856;BME280;5987;53.140;8.904;2023-04-02T01:36:44;101632.91;;;0.04;100.00
11856;BME280;5987;53.140;8.904;2023-04-02T01:40:11;101639.81;;;0.04;100.00
11856;BME280;5987;53.140;8.904;2023-04-02T01:43:27;101649.31;;;0.05;100.00
11856;BME280;5987;53.140;8.904;2023-04-02T01:46:37;101647.56;;;0.04;100.00
11856;BME280;5987;53.140;8.904;2023-04-02T01:49:44;101660.44;;;0.02;100.00
11856;BME280;5987;53.140;8.904;2023-04-02T01:52:53;101664.75;;;0.03;100.00
11856;BME280;5987;53.140;8.904;2023-04-02T01:56:00;101663.78;;;-0.02;100.00
11856;BME280;5987;53.140;8.904;2023-04-02T01:59:06;101674.13;;;-0.02;100.00
11856;BME280;5987;53.140;8.904;2023-04-02T02:02:14;101680.00;;;-0.09;100.00
11856;BME280;5987;53.140;8.904;2023-04-02T02:05:21;101686.00;;;-0.10;100.00
11856;BME280;5987;53.140;8.904;2023-04-02T02:08:33;101698.84;;;-0.13;100.00
11856;BME280;5987;53.140;8.904;2023-04-02T02:11:40;101698.00;;;-0.12;100.00
11856;BME280;5987;53.140;8.904;2023-04-02T02:14:48;101703.16;;;-0.12;100.00
11856;BME280;5987;53.140;8.904;2023-04-02T02:17:59;101709.13;;;-0.15;100.00
11856;BME280;5987;53.140;8.904;2023-04-02T02:21:07;101711.72;;;-0.15;100.00
11856;BME280;5987;53.140;8.904;2023-04-02T02:24:20;101718.59;;;-0.15;100.00
11856;BME280;5987;53.140;8.904;2023-04-02T02:27:49;101725.44;;;-0.16;100.00
11856;BME280;5987;53.140;8.904;2023-04-02T02:31:00;101729.69;;;-0.20;100.00
11856;BME280;5987;53.140;8.904;2023-04-02T02:34:14;101740.91;;;-0.18;100.00
11856;BME280;5987;53.140;8.904;2023-04-02T02:37:26;101752.00;;;-0.22;100.00
11856;BME280;5987;53.140;8.904;2023-04-02T02:40:39;101751.19;;;-0.19;100.00
11856;BME280;5987;53.140;8.904;2023-04-02T02:44:05;101764.13;;;-0.18;100.00
11856;BME280;5987;53.140;8.904;2023-04-02T02:47:15;101762.38;;;-0.19;100.00
11856;BME280;5987;53.140;8.904;2023-04-02T02:50:27;101772.63;;;-0.22;100.00
11856;BME280;5987;53.140;8.904;2023-04-02T02:53:32;101774.38;;;-0.22;100.00
11856;BME280;5987;53.140;8.904;2023-04-02T02:56:54;101782.97;;;-0.22;100.00
11856;BME280;5987;53.140;8.904;2023-04-02T03:00:01;101781.19;;;-0.24;100.00
11856;BME280;5987;53.140;8.904;2023-04-02T03:03:11;101786.28;;;-0.27;100.00
11856;BME280;5987;53.140;8.904;2023-04-02T03:06:18;101788.81;;;-0.29;100.00
11856;BME280;5987;53.140;8.904;2023-04-02T03:09:37;101798.31;;;-0.28;100.00
11856;BME280;5987;53.140;8.904;2023-04-02T03:12:49;101793.16;;;-0.28;100.00
11856;BME280;5987;53.140;8.904;2023-04-02T03:16:02;101806.06;;;-0.28;100.00
11856;BME280;5987;53.140;8.904;2023-04-02T03:19:19;101807.75;;;-0.28;100.00
11856;BME280;5987;53.140;8.904;2023-04-02T03:22:34;101811.06;;;-0.34;100.00
11856;BME280;5987;53.140;8.904;2023-04-02T03:25:45;101819.72;;;-0.32;100.00
11856;BME280;5987;53.140;8.904;2023-04-02T03:28:58;101815.50;;;-0.28;100.00
11856;BME280;5987;53.140;8.904;2023-04-02T03:32:10;101830.03;;;-0.32;100.00
11856;BME280;5987;53.140;8.904;2023-04-02T03:35:24;101835.97;;;-0.36;100.00
11856;BME280;5987;53.140;8.904;2023-04-02T03:38:36;101838.69;;;-0.30;100.00
11856;BME280;5987;53.140;8.904;2023-04-02T03:41:50;101836.88;;;-0.34;100.00
11856;BME280;5987;53.140;8.904;2023-04-02T03:45:00;101843.84;;;-0.30;100.00
11856;BME280;5987;53.140;8.904;2023-04-02T03:48:12;101850.69;;;-0.32;100.00
11856;BME280;5987;53.140;8.904;2023-04-02T03:51:23;101864.56;;;-0.27;100.00
11856;BME280;5987;53.140;8.904;2023-04-02T03:54:32;101860.19;;;-0.31;100.00
11856;BME280;5987;53.140;8.904;2023-04-02T03:57:42;101872.13;;;-0.35;100.00
11856;BME280;5987;53.140;8.904;2023-04-02T04:00:54;101874.75;;;-0.33;100.00
11856;BME280;5987;53.140;8.904;2023-04-02T04:04:06;101885.13;;;-0.30;100.00
11856;BME280;5987;53.140;8.904;2023-04-02T04:07:20;101895.53;;;-0.27;100.00
11856;BME280;5987;53.140;8.904;2023-04-02T04:10:28;101897.94;;;-0.35;100.00
11856;BME280;5987;53.140;8.904;2023-04-02T04:13:40;101903.91;;;-0.36;100.00
11856;BME280;5987;53.140;8.904;2023-04-02T04:16:52;101909.88;;;-0.38;100.00
11856;BME280;5987;53.140;8.904;2023-04-02T04:20:03;101915.88;;;-0.39;100.00
11856;BME280;5987;53.140;8.904;2023-04-02T04:23:19;101921.16;;;-0.35;100.00
11856;BME280;5987;53.140;8.904;2023-04-02T04:26:39;101929.59;;;-0.40;100.00
11856;BME280;5987;53.140;8.904;2023-04-02T04:29:50;101931.47;;;-0.35;100.00
11856;BME280;5987;53.140;8.904;2023-04-02T04:33:01;101944.34;;;-0.36;100.00
11856;BME280;5987;53.140;8.904;2023-04-02T04:36:21;101950.25;;;-0.40;100.00
11856;BME280;5987;53.140;8.904;2023-04-02T04:39:39;101956.31;;;-0.38;100.00
11856;BME280;5987;53.140;8.904;2023-04-02T04:42:49;101963.22;;;-0.37;100.00
11856;BME280;5987;53.140;8.904;2023-04-02T04:46:00;101965.84;;;-0.36;100.00
11856;BME280;5987;53.140;8.904;2023-04-02T04:49:10;101976.06;;;-0.40;100.00
11856;BME280;5987;53.140;8.904;2023-04-02T04:52:21;101977.06;;;-0.35;100.00
11856;BME280;5987;53.140;8.904;2023-04-02T04:55:31;101982.97;;;-0.39;100.00
11856;BME280;5987;53.140;8.904;2023-04-02T04:58:47;101979.63;;;-0.35;100.00
11856;BME280;5987;53.140;8.904;2023-04-02T05:01:59;101999.44;;;-0.34;100.00
11856;BME280;5987;53.140;8.904;2023-04-02T05:05:17;101998.69;;;-0.30;100.00
11856;BME280;5987;53.140;8.904;2023-04-02T05:08:29;102005.56;;;-0.30;100.00
11856;BME280;5987;53.140;8.904;2023-04-02T05:11:41;102020.25;;;-0.28;100.00
11856;BME280;5987;53.140;8.904;2023-04-02T05:14:53;102021.16;;;-0.26;100.00
11856;BME280;5987;53.140;8.904;2023-04-02T05:18:19;102028.16;;;-0.22;100.00
11856;BME280;5987;53.140;8.904;2023-04-02T05:21:34;102036.94;;;-0.15;100.00
11856;BME280;5987;53.140;8.904;2023-04-02T05:24:54;102044.09;;;-0.05;100.00
11856;BME280;5987;53.140;8.904;2023-04-02T05:28:05;102045.06;;;-0.01;100.00
11856;BME280;5987;53.140;8.904;2023-04-02T05:31:22;102061.69;;;0.10;100.00
11856;BME280;5987;53.140;8.904;2023-04-02T05:34:33;102060.94;;;0.14;100.00
11856;BME280;5987;53.140;8.904;2023-04-02T05:37:38;102069.63;;;0.18;100.00
11856;BME280;5987;53.140;8.904;2023-04-02T05:40:45;102070.66;;;0.25;100.00
11856;BME280;5987;53.140;8.904;2023-04-02T05:44:04;102074.41;;;0.36;100.00
11856;BME280;5987;53.140;8.904;2023-04-02T05:47:15;102082.41;;;0.45;100.00
11856;BME280;5987;53.140;8.904;2023-04-02T05:50:27;102091.22;;;0.54;100.00
11856;BME280;5987;53.140;8.904;2023-04-02T05:53:35;102082.78;;;0.61;100.00
11856;BME280;5987;53.140;8.904;2023-04-02T05:56:45;102092.25;;;0.62;100.00
11856;BME280;5987;53.140;8.904;2023-04-02T05:59:54;102102.00;;;0.72;100.00
11856;BME280;5987;53.140;8.904;2023-04-02T06:03:06;102111.53;;;0.73;100.00
11856;BME280;5987;53.140;8.904;2023-04-02T06:06:18;102122.06;;;0.82;100.00
11856;BME280;5987;53.140;8.904;2023-04-02T06:09:38;102122.19;;;0.89;100.00
11856;BME280;5987;53.140;8.904;2023-04-02T06:12:48;102126.53;;;0.90;100.00
11856;BME280;5987;53.140;8.904;2023-04-02T06:15:55;102123.88;;;0.87;100.00
11856;BME280;5987;53.140;8.904;2023-04-02T06:19:01;102119.63;;;0.89;100.00
11856;BME280;5987;53.140;8.904;2023-04-02T06:22:18;102134.47;;;0.96;100.00
11856;BME280;5987;53.140;8.904;2023-04-02T06:25:27;102141.38;;;0.97;100.00
11856;BME280;5987;53.140;8.904;2023-04-02T06:28:39;102160.53;;;1.05;100.00
11856;BME280;5987;53.140;8.904;2023-04-02T06:31:50;102159.69;;;1.06;100.00
11856;BME280;5987;53.140;8.904;2023-04-02T06:34:57;102166.53;;;1.04;100.00
11856;BME280;5987;53.140;8.904;2023-04-02T06:38:04;102167.53;;;1.09;100.00
11856;BME280;5987;53.140;8.904;2023-04-02T06:41:17;102170.91;;;1.07;100.00
11856;BME280;5987;53.140;8.904;2023-04-02T06:44:24;102177.47;;;1.29;100.00
11856;BME280;5987;53.140;8.904;2023-04-02T06:47:35;102177.50;;;1.68;100.00
11856;BME280;5987;53.140;8.904;2023-04-02T06:50:46;102182.44;;;1.99;100.00
11856;BME280;5987;53.140;8.904;2023-04-02T06:53:50;102188.38;;;2.37;100.00
11856;BME280;5987;53.140;8.904;2023-04-02T06:56:55;102193.34;;;2.74;100.00
11856;BME280;5987;53.140;8.904;2023-04-02T06:59:58;102188.34;;;2.36;100.00
11856;BME280;5987;53.140;8.904;2023-04-02T07:03:06;102192.97;;;2.52;100.00
11856;BME280;5987;53.140;8.904;2023-04-02T07:06:17;102208.44;;;2.46;100.00
11856;BME280;5987;53.140;8.904;2023-04-02T07:09:21;102198.84;;;2.42;100.00
11856;BME280;5987;53.140;8.904;2023-04-02T07:12:26;102203.84;;;2.80;100.00
11856;BME280;5987;53.140;8.904;2023-04-02T07:15:29;102214.88;;;2.68;100.00
11856;BME280;5987;53.140;8.904;2023-04-02T07:18:33;102228.81;;;2.73;100.00
11856;BME280;5987;53.140;8.904;2023-04-02T07:21:38;102227.53;;;2.99;100.00
11856;BME280;5987;53.140;8.904;2023-04-02T07:24:42;102223.47;;;3.16;100.00
11856;BME280;5987;53.140;8.904;2023-04-02T07:27:46;102235.53;;;3.11;100.00
11856;BME280;5987;53.140;8.904;2023-04-02T07:30:52;102230.50;;;3.23;100.00
11856;BME280;5987;53.140;8.904;2023-04-02T07:33:58;102234.81;;;3.21;100.00
11856;BME280;5987;53.140;8.904;2023-04-02T07:37:04;102263.38;;;3.21;100.00
11856;BME280;5987;53.140;8.904;2023-04-02T07:40:16;102244.22;;;3.15;100.00
11856;BME280;5987;53.140;8.904;2023-04-02T07:43:21;102247.19;;;3.38;100.00
11856;BME280;5987;53.140;8.904;2023-04-02T07:46:25;102243.28;;;3.65;100.00
11856;BME280;5987;53.140;8.904;2023-04-02T07:49:28;102260.41;;;3.53;100.00
11856;BME280;5987;53.140;8.904;2023-04-02T07:52:37;102255.00;;;3.38;100.00
11856;BME280;5987;53.140;8.904;2023-04-02T07:55:41;102263.03;;;3.53;100.00
11856;BME280;5987;53.140;8.904;2023-04-02T07:58:45;102264.69;;;4.11;100.00
11856;BME280;5987;53.140;8.904;2023-04-02T08:01:51;102257.72;;;4.07;100.00
11856;BME280;5987;53.140;8.904;2023-04-02T08:04:55;102265.00;;;4.36;100.00
11856;BME280;5987;53.140;8.904;2023-04-02T08:08:00;102272.66;;;4.23;100.00
11856;BME280;5987;53.140;8.904;2023-04-02T08:11:05;102273.72;;;4.41;100.00
11856;BME280;5987;53.140;8.904;2023-04-02T08:14:09;102283.09;;;4.26;100.00
11856;BME280;5987;53.140;8.904;2023-04-02T08:17:12;102293.09;;;4.64;100.00
11856;BME280;5987;53.140;8.904;2023-04-02T08:20:19;102291.34;;;4.67;100.00
11856;BME280;5987;53.140;8.904;2023-04-02T08:23:25;102308.16;;;4.95;100.00
11856;BME280;5987;53.140;8.904;2023-04-02T08:26:29;102316.81;;;4.92;100.00
11856;BME280;5987;53.140;8.904;2023-04-02T08:29:33;102318.69;;;5.09;100.00
11856;BME280;5987;53.140;8.904;2023-04-02T08:32:37;102314.44;;;5.17;100.00
11856;BME280;5987;53.140;8.904;2023-04-02T08:35:42;102325.06;;;5.39;100.00
11856;BME280;5987;53.140;8.904;2023-04-02T08:38:47;102325.31;;;4.77;100.00
11856;BME280;5987;53.140;8.904;2023-04-02T08:42:01;102329.03;;;5.00;100.00
11856;BME280;5987;53.140;8.904;2023-04-02T08:45:19;102329.69;;;4.80;100.00
11856;BME280;5987;53.140;8.904;2023-04-02T08:48:30;102341.34;;;5.16;100.00
11856;BME280;5987;53.140;8.904;2023-04-02T08:51:36;102344.00;;;5.22;100.00
11856;BME280;5987;53.140;8.904;2023-04-02T08:54:41;102350.22;;;5.35;100.00
11856;BME280;5987;53.140;8.904;2023-04-02T08:57:53;102350.34;;;5.52;100.00
11856;BME280;5987;53.140;8.904;2023-04-02T09:01:02;102347.59;;;5.32;100.00
11856;BME280;5987;53.140;8.904;2023-04-02T09:04:16;102355.31;;;5.24;100.00
11856;BME280;5987;53.140;8.904;2023-04-02T09:07:21;102347.63;;;5.37;100.00
11856;BME280;5987;53.140;8.904;2023-04-02T09:10:37;102356.53;;;5.62;100.00
11856;BME280;5987;53.140;8.904;2023-04-02T09:13:47;102359.53;;;5.13;100.00
11856;BME280;5987;53.140;8.904;2023-04-02T09:16:57;102359.97;;;5.59;100.00
11856;BME280;5987;53.140;8.904;2023-04-02T09:20:14;102370.63;;;5.87;100.00
11856;BME280;5987;53.140;8.904;2023-04-02T09:23:22;102375.59;;;5.58;100.00
11856;BME280;5987;53.140;8.904;2023-04-02T09:26:31;102370.41;;;5.61;100.00
11856;BME280;5987;53.140;8.904;2023-04-02T09:29:42;102372.84;;;5.41;100.00
11856;BME280;5987;53.140;8.904;2023-04-02T09:32:49;102384.06;;;5.33;100.00
11856;BME280;5987;53.140;8.904;2023-04-02T09:35:55;102371.38;;;5.72;100.00
11856;BME280;5987;53.140;8.904;2023-04-02T09:39:04;102388.44;;;5.39;100.00
11856;BME280;5987;53.140;8.904;2023-04-02T09:42:30;102393.81;;;5.55;100.00
11856;BME280;5987;53.140;8.904;2023-04-02T09:45:35;102400.78;;;5.57;100.00
11856;BME280;5987;53.140;8.904;2023-04-02T09:48:43;102401.63;;;5.56;100.00
11856;BME280;5987;53.140;8.904;2023-04-02T09:52:17;102393.81;;;5.56;100.00
11856;BME280;5987;53.140;8.904;2023-04-02T09:55:25;102399.91;;;5.58;100.00
11856;BME280;5987;53.140;8.904;2023-04-02T09:58:31;102400.97;;;5.80;100.00
11856;BME280;5987;53.140;8.904;2023-04-02T10:01:38;102410.38;;;5.63;100.00
11856;BME280;5987;53.140;8.904;2023-04-02T10:04:45;102421.00;;;5.86;100.00
11856;BME280;5987;53.140;8.904;2023-04-02T10:07:51;102414.66;;;5.55;100.00
11856;BME280;5987;53.140;8.904;2023-04-02T10:10:58;102415.97;;;6.05;100.00
11856;BME280;5987;53.140;8.904;2023-04-02T10:14:10;102413.13;;;5.75;100.00
11856;BME280;5987;53.140;8.904;2023-04-02T10:17:22;102421.81;;;5.79;100.00
11856;BME280;5987;53.140;8.904;2023-04-02T10:20:31;102426.97;;;5.73;100.00
11856;BME280;5987;53.140;8.904;2023-04-02T10:23:46;102426.72;;;5.46;100.00
11856;BME280;5987;53.140;8.904;2023-04-02T10:27:00;102434.00;;;5.83;100.00
11856;BME280;5987;53.140;8.904;2023-04-02T10:30:19;102429.19;;;6.29;100.00
11856;BME280;5987;53.140;8.904;2023-04-02T10:33:34;102442.13;;;6.14;100.00
11856;BME280;5987;53.140;8.904;2023-04-02T10:36:47;102445.06;;;6.65;100.00
11856;BME280;5987;53.140;8.904;2023-04-02T10:39:57;102446.72;;;6.52;100.00
11856;BME280;5987;53.140;8.904;2023-04-02T10:43:31;102456.69;;;5.92;100.00
11856;BME280;5987;53.140;8.904;2023-04-02T10:46:47;102457.53;;;5.89;100.00
11856;BME280;5987;53.140;8.904;2023-04-02T10:50:14;102459.56;;;6.21;100.00
11856;BME280;5987;53.140;8.904;2023-04-02T10:53:36;102450.34;;;6.74;100.00
11856;BME280;5987;53.140;8.904;2023-04-02T10:56:46;102459.69;;;6.38;100.00
11856;BME280;5987;53.140;8.904;2023-04-02T11:00:02;102445.97;;;6.72;100.00
11856;BME280;5987;53.140;8.904;2023-04-02T11:03:17;102460.03;;;6.97;100.00
11856;BME280;5987;53.140;8.904;2023-04-02T11:06:31;102459.13;;;6.93;100.00
11856;BME280;5987;53.140;8.904;2023-04-02T11:09:42;102475.53;;;6.70;100.00
11856;BME280;5987;53.140;8.904;2023-04-02T11:12:55;102477.44;;;6.96;100.00
11856;BME280;5987;53.140;8.904;2023-04-02T11:15:59;102480.91;;;6.91;98.96
11856;BME280;5987;53.140;8.904;2023-04-02T11:19:27;102479.34;;;7.37;100.00
11856;BME280;5987;53.140;8.904;2023-04-02T11:22:31;102480.97;;;7.14;100.00
11856;BME280;5987;53.140;8.904;2023-04-02T11:25:35;102484.44;;;7.03;100.00
11856;BME280;5987;53.140;8.904;2023-04-02T11:28:39;102496.78;;;7.51;100.00
11856;BME280;5987;53.140;8.904;2023-04-02T11:31:44;102496.81;;;7.57;100.00
11856;BME280;5987;53.140;8.904;2023-04-02T11:35:36;102500.31;;;7.68;98.18
11856;BME280;5987;53.140;8.904;2023-04-02T11:38:51;102489.84;;;7.59;99.64
11856;BME280;5987;53.140;8.904;2023-04-02T11:42:09;102487.28;;;7.81;100.00
11856;BME280;5987;53.140;8.904;2023-04-02T11:46:02;102487.22;;;7.58;98.99
11856;BME280;5987;53.140;8.904;2023-04-02T11:49:35;102488.03;;;7.33;92.71
11856;BME280;5987;53.140;8.904;2023-04-02T11:52:51;102494.97;;;7.25;97.34
11856;BME280;5987;53.140;8.904;2023-04-02T11:56:14;102495.94;;;7.61;100.00
11856;BME280;5987;53.140;8.904;2023-04-02T11:59:26;102505.50;;;7.59;88.28
11856;BME280;5987;53.140;8.904;2023-04-02T12:02:47;102500.28;;;7.53;87.18
11856;BME280;5987;53.140;8.904;2023-04-02T12:06:03;102489.91;;;7.81;88.74
11856;BME280;5987;53.140;8.904;2023-04-02T12:09:19;102502.94;;;7.71;95.62
11856;BME280;5987;53.140;8.904;2023-04-02T12:12:28;102506.47;;;8.09;88.86
11856;BME280;5987;53.140;8.904;2023-04-02T12:15:43;102506.47;;;8.28;82.17
11856;BME280;5987;53.140;8.904;2023-04-02T12:18:49;102516.06;;;8.22;81.87
11856;BME280;5987;53.140;8.904;2023-04-02T12:21:57;102514.28;;;7.86;80.44
11856;BME280;5987;53.140;8.904;2023-04-02T12:25:17;102516.06;;;8.08;80.97
11856;BME280;5987;53.140;8.904;2023-04-02T12:28:24;102506.47;;;8.07;76.18
11856;BME280;5987;53.140;8.904;2023-04-02T12:31:30;102516.94;;;8.11;78.55
11856;BME280;5987;53.140;8.904;2023-04-02T12:34:34;102526.53;;;8.16;73.01
11856;BME280;5987;53.140;8.904;2023-04-02T12:37:38;102523.94;;;8.44;80.02
11856;BME280;5987;53.140;8.904;2023-04-02T12:40:51;102528.28;;;8.34;77.78
11856;BME280;5987;53.140;8.904;2023-04-02T12:43:57;102533.50;;;8.40;82.57
11856;BME280;5987;53.140;8.904;2023-04-02T12:47:00;102537.03;;;8.27;83.49
11856;BME280;5987;53.140;8.904;2023-04-02T12:50:11;102534.41;;;8.49;84.89
11856;BME280;5987;53.140;8.904;2023-04-02T12:53:25;102538.78;;;8.56;86.99
11856;BME280;5987;53.140;8.904;2023-04-02T12:56:31;102538.75;;;8.22;86.41
11856;BME280;5987;53.140;8.904;2023-04-02T12:59:36;102545.72;;;8.32;86.21
11856;BME280;5987;53.140;8.904;2023-04-02T13:02:45;102544.84;;;8.16;85.19
11856;BME280;5987;53.140;8.904;2023-04-02T13:05:53;102552.72;;;8.12;81.19
11856;BME280;5987;53.140;8.904;2023-04-02T13:08:59;102552.69;;;8.24;79.87
11856;BME280;5987;53.140;8.904;2023-04-02T13:12:05;102540.50;;;8.38;81.51
11856;BME280;5987;53.140;8.904;2023-04-02T13:15:21;102542.22;;;8.21;83.17
11856;BME280;5987;53.140;8.904;2023-04-02T13:18:29;102542.25;;;8.64;80.90
11856;BME280;5987;53.140;8.904;2023-04-02T13:21:34;102552.72;;;8.26;66.38
11856;BME280;5987;53.140;8.904;2023-04-02T13:24:38;102545.75;;;8.40;68.30
11856;BME280;5987;53.140;8.904;2023-04-02T13:27:44;102547.50;;;8.52;65.54
11856;BME280;5987;53.140;8.904;2023-04-02T13:30:47;102549.22;;;8.28;67.55
11856;BME280;5987;53.140;8.904;2023-04-02T13:33:51;102560.56;;;8.39;73.51
11856;BME280;5987;53.140;8.904;2023-04-02T13:36:55;102570.19;;;8.54;80.00
11856;BME280;5987;53.140;8.904;2023-04-02T13:39:59;102564.97;;;8.47;79.66
11856;BME280;5987;53.140;8.904;2023-04-02T13:43:15;102566.69;;;8.63;77.45
11856;BME280;5987;53.140;8.904;2023-04-02T13:46:23;102573.69;;;8.61;80.07
11856;BME280;5987;53.140;8.904;2023-04-02T13:49:28;102576.31;;;8.61;74.33
11856;BME280;5987;53.140;8.904;2023-04-02T13:52:32;102573.66;;;8.33;69.17
11856;BME280;5987;53.140;8.904;2023-04-02T13:55:39;102575.38;;;8.44;65.00
11856;BME280;5987;53.140;8.904;2023-04-02T13:58:46;102576.28;;;8.53;64.50
11856;BME280;5987;53.140;8.904;2023-04-02T14:01:52;102582.41;;;8.66;68.30
11856;BME280;5987;53.140;8.904;2023-04-02T14:05:13;102583.28;;;8.54;65.58
11856;BME280;5987;53.140;8.904;2023-04-02T14:08:31;102568.44;;;8.73;64.02
11856;BME280;5987;53.140;8.904;2023-04-02T14:11:50;102579.78;;;8.72;60.63
11856;BME280;5987;53.140;8.904;2023-04-02T14:15:20;102572.78;;;8.40;61.13
11856;BME280;5987;53.140;8.904;2023-04-02T14:18:49;102586.75;;;8.69;64.25
11856;BME280;5987;53.140;8.904;2023-04-02T14:22:11;102574.50;;;8.34;65.71
11856;BME280;5987;53.140;8.904;2023-04-02T14:25:25;102571.94;;;8.46;66.88
11856;BME280;5987;53.140;8.904;2023-04-02T14:28:43;102594.56;;;8.24;68.19
11856;BME280;5987;53.140;8.904;2023-04-02T14:32:00;102591.97;;;8.32;68.10
11856;BME280;5987;53.140;8.904;2023-04-02T14:35:17;102594.63;;;8.52;65.22
11856;BME280;5987;53.140;8.904;2023-04-02T14:38:33;102599.81;;;8.38;63.44
11856;BME280;5987;53.140;8.904;2023-04-02T14:41:46;102599.88;;;8.46;61.62
11856;BME280;5987;53.140;8.904;2023-04-02T14:45:00;102601.56;;;8.34;60.42
11856;BME280;5987;53.140;8.904;2023-04-02T14:48:22;102609.44;;;8.31;66.45
11856;BME280;5987;53.140;8.904;2023-04-02T14:51:35;102599.81;;;8.30;62.39
11856;BME280;5987;53.140;8.904;2023-04-02T14:54:47;102606.78;;;8.16;64.23
11856;BME280;5987;53.140;8.904;2023-04-02T14:57:55;102604.19;;;8.31;63.81
11856;BME280;5987;53.140;8.904;2023-04-02T15:01:04;102618.19;;;8.49;65.36
11856;BME280;5987;53.140;8.904;2023-04-02T15:04:16;102612.03;;;8.23;66.80
11856;BME280;5987;53.140;8.904;2023-04-02T15:07:25;102615.56;;;8.49;65.54
11856;BME280;5987;53.140;8.904;2023-04-02T15:10:33;102617.22;;;8.10;67.87
11856;BME280;5987;53.140;8.904;2023-04-02T15:13:45;102614.59;;;8.11;65.44
11856;BME280;5987;53.140;8.904;2023-04-02T15:16:51;102632.91;;;8.03;65.73
11856;BME280;5987;53.140;8.904;2023-04-02T15:20:10;102621.63;;;8.21;66.27
11856;BME280;5987;53.140;8.904;2023-04-02T15:23:25;102625.09;;;8.19;67.15
11856;BME280;5987;53.140;8.904;2023-04-02T15:26:46;102625.97;;;8.21;66.94
11856;BME280;5987;53.140;8.904;2023-04-02T15:29:59;102629.44;;;8.14;68.91
11856;BME280;5987;53.140;8.904;2023-04-02T15:33:47;102630.28;;;8.03;71.72
11856;BME280;5987;53.140;8.904;2023-04-02T15:37:10;102646.75;;;7.71;71.21
11856;BME280;5987;53.140;8.904;2023-04-02T15:40:31;102641.63;;;8.02;73.02
11856;BME280;5987;53.140;8.904;2023-04-02T15:43:46;102647.75;;;8.04;69.60
11856;BME280;5987;53.140;8.904;2023-04-02T15:46:58;102650.41;;;8.28;70.15
11856;BME280;5987;53.140;8.904;2023-04-02T15:50:29;102664.25;;;7.96;72.49
11856;BME280;5987;53.140;8.904;2023-04-02T15:53:52;102661.63;;;7.86;77.67
11856;BME280;5987;53.140;8.904;2023-04-02T15:57:17;102662.50;;;7.87;77.49
11856;BME280;5987;53.140;8.904;2023-04-02T16:00:24;102670.25;;;7.65;72.58
11856;BME280;5987;53.140;8.904;2023-04-02T16:04:01;102671.13;;;7.64;75.55
11856;BME280;5987;53.140;8.904;2023-04-02T16:07:27;102676.41;;;7.77;77.67
11856;BME280;5987;53.140;8.904;2023-04-02T16:10:38;102687.81;;;7.96;78.81
11856;BME280;5987;53.140;8.904;2023-04-02T16:13:44;102692.94;;;7.74;75.97
11856;BME280;5987;53.140;8.904;2023-04-02T16:16:51;102695.47;;;7.59;77.18
11856;BME280;5987;53.140;8.904;2023-04-02T16:20:02;102694.72;;;7.81;82.50
11856;BME280;5987;53.140;8.904;2023-04-02T16:23:16;102698.97;;;7.59;82.62
11856;BME280;5987;53.140;8.904;2023-04-02T16:26:49;102703.31;;;7.59;84.40
11856;BME280;5987;53.140;8.904;2023-04-02T16:30:25;102715.56;;;7.67;85.33
11856;BME280;5987;53.140;8.904;2023-04-02T16:33:45;102710.97;;;7.31;85.09
11856;BME280;5987;53.140;8.904;2023-04-02T16:36:58;102729.38;;;7.48;86.00
11856;BME280;5987;53.140;8.904;2023-04-02T16:40:16;102724.06;;;7.35;82.44
11856;BME280;5987;53.140;8.904;2023-04-02T16:43:39;102739.81;;;7.42;81.53
11856;BME280;5987;53.140;8.904;2023-04-02T16:46:58;102751.94;;;7.35;83.23
11856;BME280;5987;53.140;8.904;2023-04-02T16:50:18;102751.81;;;7.16;81.42
11856;BME280;5987;53.140;8.904;2023-04-02T16:53:34;102765.84;;;7.28;84.47
11856;BME280;5987;53.140;8.904;2023-04-02T16:57:25;102759.66;;;7.18;83.99
11856;BME280;5987;53.140;8.904;2023-04-02T17:00:41;102768.19;;;6.98;87.53